Time,TemperatureF,DewpointF,PressureIn,WindDirection,WindDirectionDegrees,WindSpeedMPH,WindSpeedGustMPH,Humidity,HourlyPrecipIn,Conditions,Clouds,dailyrainin,SoftwareType,DateUTC
2013-12-28 00:00:00,27.6,21.0,30.19,WSW,243,0.0,0.0,77,0.00,,,0.00,weatherlink.com 1.10,2013-12-28 05:00:00,
2013-12-28 00:15:00,27.2,22.0,30.19,WSW,257,0.0,1.0,79,0.00,,,0.00,weatherlink.com 1.10,2013-12-28 05:15:00,
2013-12-28 00:30:00,27.5,22.0,30.19,WSW,238,0.0,2.0,78,0.00,,,0.00,weatherlink.com 1.10,2013-12-28 05:30:00,
2013-12-28 00:45:00,27.5,22.0,30.19,West,270,1.0,2.0,78,0.00,,,0.00,weatherlink.com 1.10,2013-12-28 05:45:00,
2013-12-28 01:00:00,26.7,21.0,30.18,SW,236,0.0,0.0,79,0.00,,,0.00,weatherlink.com 1.10,2013-12-28 06:00:00,
2013-12-28 01:15:00,26.3,21.0,30.18,SSW,210,1.0,2.0,81,0.00,,,0.00,weatherlink.com 1.10,2013-12-28 06:15:00,
2013-12-28 01:30:00,25.9,21.0,30.17,SW,231,0.0,1.0,81,0.00,,,0.00,weatherlink.com 1.10,2013-12-28 06:30:00,
2013-12-28 01:45:00,25.9,21.0,30.18,WSW,242,0.0,1.0,82,0.00,,,0.00,weatherlink.com 1.10,2013-12-28 06:45:00,
2013-12-28 02:00:00,26.1,21.0,30.18,WSW,246,0.0,1.0,82,0.00,,,0.00,weatherlink.com 1.10,2013-12-28 07:00:00,
2013-12-28 02:15:00,25.7,21.0,30.18,West,274,0.0,0.0,82,0.00,,,0.00,weatherlink.com 1.10,2013-12-28 07:15:00,
2013-12-28 02:30:00,25.9,21.0,30.17,WSW,247,0.0,2.0,83,0.00,,,0.00,weatherlink.com 1.10,2013-12-28 07:30:00,
2013-12-28 02:45:00,26.7,22.0,30.18,SW,222,0.0,2.0,81,0.00,,,0.00,weatherlink.com 1.10,2013-12-28 07:45:00,
2013-12-28 03:00:00,26.9,22.0,30.17,WSW,243,0.0,2.0,81,0.00,,,0.00,weatherlink.com 1.10,2013-12-28 08:00:00,
2013-12-28 03:15:00,26.5,21.0,30.17,SSW,210,0.0,2.0,81,0.00,,,0.00,weatherlink.com 1.10,2013-12-28 08:15:00,
2013-12-28 03:31:00,26.1,21.0,30.17,WSW,238,0.0,1.0,82,0.00,,,0.00,weatherlink.com 1.10,2013-12-28 08:31:00,
2013-12-28 03:46:00,25.9,21.0,30.16,SW,235,2.0,2.0,83,0.00,,,0.00,weatherlink.com 1.10,2013-12-28 08:46:00,
2013-12-28 04:01:00,26.4,22.0,30.16,SSW,210,0.0,2.0,83,0.00,,,0.00,weatherlink.com 1.10,2013-12-28 09:01:00,
2013-12-28 04:16:00,26.3,22.0,30.15,SW,215,2.0,2.0,83,0.00,,,0.00,weatherlink.com 1.10,2013-12-28 09:16:00,
2013-12-28 04:31:00,26.4,22.0,30.16,SSW,211,0.0,3.0,83,0.00,,,0.00,weatherlink.com 1.10,2013-12-28 09:31:00,
2013-12-28 04:46:00,26.0,22.0,30.15,SW,221,0.0,2.0,83,0.00,,,0.00,weatherlink.com 1.10,2013-12-28 09:46:00,
2013-12-28 05:01:00,25.5,21.0,30.15,WSW,257,0.0,1.0,84,0.00,,,0.00,weatherlink.com 1.10,2013-12-28 10:01:00,
2013-12-28 05:16:00,25.2,21.0,30.14,South,186,1.0,2.0,85,0.00,,,0.00,weatherlink.com 1.10,2013-12-28 10:16:00,
2013-12-28 05:31:00,25.2,21.0,30.14,SW,221,0.0,1.0,85,0.00,,,0.00,weatherlink.com 1.10,2013-12-28 10:31:00,
2013-12-28 05:46:00,25.0,21.0,30.13,SW,226,1.0,2.0,85,0.00,,,0.00,weatherlink.com 1.10,2013-12-28 10:46:00,
2013-12-28 06:01:00,24.9,21.0,30.11,SSW,195,1.0,2.0,86,0.00,,,0.00,weatherlink.com 1.10,2013-12-28 11:01:00,
2013-12-28 06:16:00,24.8,21.0,30.11,SW,214,0.0,2.0,86,0.00,,,0.00,weatherlink.com 1.10,2013-12-28 11:16:00,
2013-12-28 06:31:00,24.7,21.0,30.11,SW,221,1.0,1.0,86,0.00,,,0.00,weatherlink.com 1.10,2013-12-28 11:31:00,
2013-12-28 06:46:00,24.6,21.0,30.10,SSW,210,1.0,2.0,87,0.00,,,0.00,weatherlink.com 1.10,2013-12-28 11:46:00,
2013-12-28 07:01:00,24.5,21.0,30.10,SW,221,1.0,1.0,87,0.00,,,0.00,weatherlink.com 1.10,2013-12-28 12:01:00,
2013-12-28 07:16:00,25.4,22.0,30.10,WSW,255,0.0,2.0,88,0.00,,,0.00,weatherlink.com 1.10,2013-12-28 12:16:00,
2013-12-28 07:31:00,26.1,23.0,30.10,WSW,250,0.0,1.0,86,0.00,,,0.00,weatherlink.com 1.10,2013-12-28 12:31:00,
2013-12-28 07:46:00,27.7,24.0,30.10,SW,225,2.0,4.0,85,0.00,,,0.00,weatherlink.com 1.10,2013-12-28 12:46:00,
2013-12-28 08:01:00,30.1,25.0,30.09,SW,222,3.0,5.0,81,0.00,,,0.00,weatherlink.com 1.10,2013-12-28 13:01:00,
2013-12-28 08:16:00,31.8,25.0,30.09,West,263,4.0,7.0,77,0.00,,,0.00,weatherlink.com 1.10,2013-12-28 13:16:00,
2013-12-28 08:32:00,33.5,26.0,30.08,WSW,255,2.0,9.0,74,0.00,,,0.00,weatherlink.com 1.10,2013-12-28 13:32:00,
2013-12-28 08:46:00,34.9,27.0,30.09,West,270,3.0,8.0,72,0.00,,,0.00,weatherlink.com 1.10,2013-12-28 13:46:00,
2013-12-28 09:01:00,36.2,27.0,30.09,WSW,246,5.0,8.0,70,0.00,,,0.00,weatherlink.com 1.10,2013-12-28 14:01:00,
2013-12-28 09:16:00,36.9,27.0,30.09,WNW,283,3.0,7.0,68,0.00,,,0.00,weatherlink.com 1.10,2013-12-28 14:16:00,
2013-12-28 09:32:00,37.1,28.0,30.09,West,274,3.0,4.0,69,0.00,,,0.00,weatherlink.com 1.10,2013-12-28 14:32:00,
2013-12-28 09:47:00,37.3,28.0,30.09,West,267,4.0,6.0,68,0.00,,,0.00,weatherlink.com 1.10,2013-12-28 14:47:00,
2013-12-28 10:02:00,37.6,28.0,30.08,West,259,5.0,5.0,68,0.00,,,0.00,weatherlink.com 1.10,2013-12-28 15:02:00,
2013-12-28 10:17:00,38.2,28.0,30.07,West,275,2.0,8.0,66,0.00,,,0.00,weatherlink.com 1.10,2013-12-28 15:17:00,
2013-12-28 10:32:00,39.2,28.0,30.07,NW,322,3.0,6.0,64,0.00,,,0.00,weatherlink.com 1.10,2013-12-28 15:32:00,
2013-12-28 10:47:00,40.0,28.0,30.06,WSW,248,6.0,7.0,62,0.01,,,0.01,weatherlink.com 1.10,2013-12-28 15:47:00,
2013-12-28 11:02:00,41.0,28.0,30.04,West,260,6.0,11.0,60,0.01,,,0.01,weatherlink.com 1.10,2013-12-28 16:02:00,
2013-12-28 11:17:00,41.3,28.0,30.04,West,271,2.0,8.0,60,0.01,,,0.01,weatherlink.com 1.10,2013-12-28 16:17:00,
2013-12-28 11:32:00,41.1,28.0,30.04,West,259,3.0,6.0,60,0.01,,,0.01,weatherlink.com 1.10,2013-12-28 16:32:00,
2013-12-28 11:47:00,40.8,28.0,30.03,West,273,4.0,8.0,60,0.00,,,0.01,weatherlink.com 1.10,2013-12-28 16:47:00,
2013-12-28 12:03:00,40.9,28.0,30.03,WSW,249,3.0,9.0,61,0.00,,,0.01,weatherlink.com 1.10,2013-12-28 17:03:00,
2013-12-28 12:17:00,41.7,28.0,30.02,West,270,2.0,9.0,59,0.00,,,0.01,weatherlink.com 1.10,2013-12-28 17:17:00,
2013-12-28 12:32:00,43.4,29.0,30.01,WSW,255,4.0,6.0,58,0.00,,,0.01,weatherlink.com 1.10,2013-12-28 17:32:00,
2013-12-28 12:47:00,44.5,29.0,30.00,West,274,4.0,8.0,55,0.00,,,0.01,weatherlink.com 1.10,2013-12-28 17:47:00,
2013-12-28 13:02:00,45.4,29.0,30.01,West,267,3.0,8.0,52,0.00,,,0.01,weatherlink.com 1.10,2013-12-28 18:02:00,
2013-12-28 13:17:00,46.4,28.0,30.00,NNW,329,2.0,4.0,50,0.00,,,0.01,weatherlink.com 1.10,2013-12-28 18:17:00,
2013-12-28 13:32:00,47.1,28.0,29.98,ESE,119,3.0,7.0,48,0.00,,,0.01,weatherlink.com 1.10,2013-12-28 18:32:00,
2013-12-28 13:47:00,47.0,28.0,29.98,West,278,2.0,7.0,47,0.00,,,0.01,weatherlink.com 1.10,2013-12-28 18:47:00,
2013-12-28 14:02:00,46.9,28.0,29.98,WSW,256,1.0,6.0,48,0.00,,,0.01,weatherlink.com 1.10,2013-12-28 19:02:00,
2013-12-28 14:17:00,46.9,28.0,29.98,WSW,257,1.0,7.0,48,0.00,,,0.01,weatherlink.com 1.10,2013-12-28 19:17:00,
2013-12-28 14:33:00,47.5,28.0,29.97,West,280,3.0,5.0,48,0.00,,,0.01,weatherlink.com 1.10,2013-12-28 19:33:00,
2013-12-28 14:48:00,47.3,28.0,29.97,West,275,2.0,6.0,47,0.00,,,0.01,weatherlink.com 1.10,2013-12-28 19:48:00,
2013-12-28 15:03:00,47.4,28.0,29.98,WSW,257,1.0,7.0,47,0.00,,,0.01,weatherlink.com 1.10,2013-12-28 20:03:00,
2013-12-28 15:18:00,47.6,28.0,29.99,WSW,257,2.0,6.0,47,0.00,,,0.01,weatherlink.com 1.10,2013-12-28 20:18:00,
2013-12-28 15:33:00,46.6,28.0,29.99,NW,307,1.0,4.0,49,0.00,,,0.01,weatherlink.com 1.10,2013-12-28 20:33:00,
2013-12-28 15:48:00,46.2,28.0,29.99,West,276,3.0,4.0,50,0.00,,,0.01,weatherlink.com 1.10,2013-12-28 20:48:00,
2013-12-28 16:03:00,45.3,28.0,29.99,WNW,298,4.0,9.0,51,0.00,,,0.01,weatherlink.com 1.10,2013-12-28 21:03:00,
2013-12-28 16:18:00,44.4,28.0,30.00,West,259,0.0,2.0,52,0.00,,,0.01,weatherlink.com 1.10,2013-12-28 21:18:00,
2013-12-28 16:33:00,43.2,27.0,29.99,WSW,249,0.0,1.0,54,0.00,,,0.01,weatherlink.com 1.10,2013-12-28 21:33:00,
2013-12-28 16:48:00,42.4,28.0,30.00,West,262,1.0,1.0,56,0.00,,,0.01,weatherlink.com 1.10,2013-12-28 21:48:00,
2013-12-28 17:03:00,41.8,27.0,30.01,West,262,1.0,2.0,57,0.00,,,0.01,weatherlink.com 1.10,2013-12-28 22:03:00,
2013-12-28 17:18:00,40.6,27.0,30.02,West,263,0.0,0.0,59,0.00,,,0.01,weatherlink.com 1.10,2013-12-28 22:18:00,
2013-12-28 17:33:00,39.2,27.0,30.03,West,263,1.0,1.0,62,0.00,,,0.01,weatherlink.com 1.10,2013-12-28 22:33:00,
2013-12-28 17:48:00,39.5,27.0,30.03,West,269,0.0,1.0,61,0.00,,,0.01,weatherlink.com 1.10,2013-12-28 22:48:00,
2013-12-28 18:03:00,38.0,27.0,30.03,West,269,0.0,0.0,64,0.00,,,0.01,weatherlink.com 1.10,2013-12-28 23:03:00,
2013-12-28 18:18:00,38.0,27.0,30.02,West,269,1.0,1.0,65,0.00,,,0.01,weatherlink.com 1.10,2013-12-28 23:18:00,
2013-12-28 18:33:00,37.9,27.0,30.02,West,266,0.0,1.0,64,0.00,,,0.01,weatherlink.com 1.10,2013-12-28 23:33:00,
2013-12-28 18:48:00,36.4,26.0,30.03,West,266,0.0,0.0,67,0.00,,,0.01,weatherlink.com 1.10,2013-12-28 23:48:00,
2013-12-28 19:03:00,36.6,27.0,30.03,West,266,0.0,1.0,67,0.00,,,0.01,weatherlink.com 1.10,2013-12-29 00:03:00,
2013-12-28 19:19:00,37.3,27.0,30.04,West,262,2.0,2.0,67,0.00,,,0.01,weatherlink.com 1.10,2013-12-29 00:19:00,
2013-12-28 19:33:00,37.4,27.0,30.05,WSW,253,1.0,2.0,66,0.00,,,0.01,weatherlink.com 1.10,2013-12-29 00:33:00,
2013-12-28 19:48:00,37.1,27.0,30.05,WSW,253,1.0,2.0,67,0.00,,,0.01,weatherlink.com 1.10,2013-12-29 00:48:00,
2013-12-28 20:03:00,36.9,27.0,30.06,WSW,253,0.0,0.0,67,0.00,,,0.01,weatherlink.com 1.10,2013-12-29 01:03:00,
2013-12-28 20:18:00,36.9,27.0,30.06,WSW,252,0.0,0.0,67,0.00,,,0.01,weatherlink.com 1.10,2013-12-29 01:18:00,
2013-12-28 20:33:00,37.2,27.0,30.06,WSW,252,0.0,0.0,67,0.00,,,0.01,weatherlink.com 1.10,2013-12-29 01:33:00,
2013-12-28 20:48:00,36.1,26.0,30.05,WSW,252,0.0,0.0,68,0.00,,,0.01,weatherlink.com 1.10,2013-12-29 01:48:00,
2013-12-28 21:03:00,34.9,26.0,30.05,WSW,252,0.0,0.0,70,0.00,,,0.01,weatherlink.com 1.10,2013-12-29 02:03:00,
2013-12-28 21:18:00,33.9,26.0,30.04,WSW,252,0.0,0.0,73,0.00,,,0.01,weatherlink.com 1.10,2013-12-29 02:18:00,
2013-12-28 21:33:00,33.6,26.0,30.04,WSW,252,0.0,0.0,74,0.00,,,0.01,weatherlink.com 1.10,2013-12-29 02:33:00,
2013-12-28 21:48:00,33.3,26.0,30.03,WSW,252,0.0,0.0,75,0.00,,,0.01,weatherlink.com 1.10,2013-12-29 02:48:00,
2013-12-28 22:03:00,32.8,26.0,30.03,WSW,252,0.0,0.0,76,0.00,,,0.01,weatherlink.com 1.10,2013-12-29 03:03:00,
2013-12-28 22:18:00,33.3,26.0,30.02,SSW,212,0.0,0.0,75,0.00,,,0.01,weatherlink.com 1.10,2013-12-29 03:18:00,
2013-12-28 22:33:00,33.0,26.0,30.02,SSW,212,0.0,0.0,75,0.00,,,0.01,weatherlink.com 1.10,2013-12-29 03:33:00,
2013-12-28 22:48:00,32.8,26.0,30.02,SSW,212,0.0,0.0,76,0.00,,,0.01,weatherlink.com 1.10,2013-12-29 03:48:00,
2013-12-28 23:03:00,32.7,26.0,30.03,SSW,212,0.0,0.0,76,0.00,,,0.01,weatherlink.com 1.10,2013-12-29 04:03:00,
2013-12-28 23:18:00,32.1,26.0,30.02,SSW,212,0.0,0.0,77,0.00,,,0.01,weatherlink.com 1.10,2013-12-29 04:18:00,
2013-12-28 23:33:00,31.6,26.0,30.02,SSW,212,0.0,0.0,79,0.00,,,0.01,weatherlink.com 1.10,2013-12-29 04:33:00,
2013-12-28 23:48:00,31.3,26.0,30.01,SSW,212,0.0,0.0,79,0.00,,,0.01,weatherlink.com 1.10,2013-12-29 04:48:00,